Time;durP1;ratioP1;P1;durP2;ratioP2;P2;SDS_P1;SDS_P2;PMS_P1;PMS_P2;Temp;Humidity;BMP_temperature;BMP_pressure;BME280_temperature;BME280_humidity;BME280_pressure;Samples;Min_cycle;Max_cycle;Signal;HPM_P1;HPM_P2
2022/06/30 00:00:23;;;;;;;4.00;3.40;;;;;;;28.73;39.85;101081.00;143725;621;47006;-75
2022/06/30 00:02:50;;;;;;;3.83;2.83;;;;;;;28.74;39.81;101079.06;143725;619;46009;-76
2022/06/30 00:05:16;;;;;;;2.65;2.40;;;;;;;28.69;40.05;101073.63;143726;588;46010;-75
2022/06/30 00:07:43;;;;;;;5.37;2.87;;;;;;;28.66;39.88;101082.53;143727;576;46031;-75
2022/06/30 00:10:11;;;;;;;4.30;3.25;;;;;;;28.66;39.96;101088.06;143716;629;49010;-77
2022/06/30 00:12:41;;;;;;;8.07;3.53;;;;;;;28.71;39.66;101082.41;143727;588;46008;-74
2022/06/30 00:15:09;;;;;;;5.53;3.08;;;;;;;28.72;39.42;101087.63;143727;607;47004;-75
2022/06/30 00:17:35;;;;;;;4.80;2.90;;;;;;;28.71;40.08;101099.00;143726;587;46012;-76
2022/06/30 00:20:02;;;;;;;5.28;2.90;;;;;;;28.68;39.89;101088.56;143725;667;47006;-76
2022/06/30 00:22:28;;;;;;;4.57;3.08;;;;;;;28.67;39.91;101086.94;143725;581;47008;-76
2022/06/30 00:24:55;;;;;;;3.72;3.10;;;;;;;28.66;39.89;101090.81;143729;608;47006;-75
2022/06/30 00:27:21;;;;;;;5.28;3.17;;;;;;;28.64;40.10;101084.78;143728;745;46010;-74
2022/06/30 00:29:48;;;;;;;7.15;3.40;;;;;;;28.65;40.07;101086.41;143724;569;47006;-76
2022/06/30 00:32:14;;;;;;;5.10;3.20;;;;;;;28.64;40.03;101093.06;143730;586;46008;-76
2022/06/30 00:34:40;;;;;;;4.78;3.37;;;;;;;28.58;39.73;101090.44;143727;573;47006;-76
2022/06/30 00:37:07;;;;;;;4.30;3.20;;;;;;;28.53;39.95;101089.72;143726;583;46010;-77
2022/06/30 00:39:33;;;;;;;6.00;3.65;;;;;;;28.49;39.96;101084.03;143725;592;47004;-76
2022/06/30 00:42:01;;;;;;;5.45;3.00;;;;;;;28.47;40.00;101086.28;143727;581;46006;-75
2022/06/30 00:44:28;;;;;;;5.60;3.17;;;;;;;28.42;40.17;101091.91;143725;605;47002;-76
2022/06/30 00:46:54;;;;;;;6.32;3.30;;;;;;;28.40;40.35;101074.84;143726;646;46010;-74
2022/06/30 00:49:21;;;;;;;7.03;3.30;;;;;;;28.38;40.31;101079.88;143725;573;47004;-75
2022/06/30 00:51:47;;;;;;;5.22;3.33;;;;;;;28.36;40.53;101077.41;143725;579;46006;-76
2022/06/30 00:54:15;;;;;;;5.70;3.00;;;;;;;28.34;40.50;101074.13;143726;589;47012;-75
2022/06/30 00:56:45;;;;;;;5.12;3.25;;;;;;;28.35;40.50;101077.72;143727;615;46011;-75
2022/06/30 00:59:14;;;;;;;4.15;2.75;;;;;;;28.32;40.93;101076.41;143723;574;47004;-75
2022/06/30 01:01:45;;;;;;;4.12;3.30;;;;;;;28.34;41.04;101076.09;143727;576;46006;-76
2022/06/30 01:04:13;;;;;;;3.40;2.83;;;;;;;28.37;40.53;101075.47;143727;570;47005;-76
2022/06/30 01:06:44;;;;;;;3.92;3.20;;;;;;;28.38;40.55;101068.81;143727;578;46010;-75
2022/06/30 01:09:12;;;;;;;4.12;3.42;;;;;;;28.40;40.82;101074.84;143725;632;47004;-76
2022/06/30 01:14:22;;;;;;;5.95;2.95;;;;;;;28.30;41.94;101073.12;143729;592;46006;-76
2022/06/30 01:16:49;;;;;;;4.47;3.22;;;;;;;28.24;42.36;101080.69;143725;731;46010;-76
2022/06/30 01:19:15;;;;;;;4.15;3.40;;;;;;;28.25;42.06;101081.53;143723;575;47004;-77
2022/06/30 01:21:59;;;;;;;5.32;3.67;;;;;;;28.22;42.44;101079.38;143729;586;46006;-75
2022/06/30 01:24:25;;;;;;;4.18;3.35;;;;;;;28.19;42.29;101071.72;143727;583;47004;-74
2022/06/30 01:26:58;;;;;;;6.78;3.33;;;;;;;28.21;40.90;101070.28;143725;591;47011;-76
2022/06/30 01:29:24;;;;;;;4.68;3.08;;;;;;;28.21;39.86;101070.28;143726;569;47002;-75
2022/06/30 01:31:51;;;;;;;6.87;3.47;;;;;;;28.24;39.47;101064.13;143729;604;46007;-76
2022/06/30 01:34:17;;;;;;;4.30;3.20;;;;;;;28.24;39.60;101074.37;143725;567;47002;-75
2022/06/30 01:36:44;;;;;;;3.47;2.72;;;;;;;28.23;39.95;101069.97;143726;582;46010;-75
2022/06/30 01:39:10;;;;;;;5.15;3.78;;;;;;;28.21;39.71;101069.47;143725;573;46014;-77
2022/06/30 01:41:37;;;;;;;6.78;2.97;;;;;;;28.18;39.77;101073.66;143725;575;46926;-75
2022/06/30 01:44:03;;;;;;;4.20;3.05;;;;;;;28.13;40.53;101071.00;143724;583;47002;-76
2022/06/30 01:46:30;;;;;;;5.22;3.00;;;;;;;28.10;40.32;101057.81;143727;667;46010;-75
2022/06/30 01:48:56;;;;;;;4.78;3.45;;;;;;;28.10;40.58;101066.94;143722;742;47004;-76
2022/06/30 01:51:23;;;;;;;4.15;3.10;;;;;;;28.10;40.46;101061.41;143726;572;46006;-75
2022/06/30 01:53:49;;;;;;;3.22;2.75;;;;;;;28.10;40.20;101066.94;143726;580;47004;-76
2022/06/30 01:56:16;;;;;;;4.72;3.22;;;;;;;28.02;40.97;101075.91;143725;701;47008;-75
2022/06/30 01:58:42;;;;;;;3.37;3.08;;;;;;;27.98;40.62;101066.59;143723;577;47004;-75
2022/06/30 02:01:08;;;;;;;4.90;3.10;;;;;;;27.90;41.20;101070.09;143723;740;47006;-76
2022/06/30 02:03:36;;;;;;;3.37;3.08;;;;;;;27.81;41.60;101065.28;143729;702;47004;-71
2022/06/30 02:06:16;;;;;;;8.13;3.53;;;;;;;27.84;41.28;101067.44;143728;581;46008;-71
2022/06/30 02:08:47;;;;;;;5.62;3.33;;;;;;;27.94;40.86;101069.16;143732;581;45013;-72
2022/06/30 02:11:13;;;;;;;3.37;3.05;;;;;;;27.98;40.41;101061.06;143730;621;46006;-75
2022/06/30 02:13:39;;;;;;;4.75;2.92;;;;;;;28.08;39.79;101057.28;143726;583;47004;-77
2022/06/30 02:16:06;;;;;;;4.78;2.95;;;;;;;28.12;39.56;101063.84;143726;583;46010;-75
2022/06/30 02:18:32;;;;;;;3.85;3.45;;;;;;;28.11;40.20;101064.97;143724;604;47004;-75
2022/06/30 02:20:59;;;;;;;5.18;2.80;;;;;;;28.16;39.81;101062.12;143726;618;46926;-76
2022/06/30 02:23:25;;;;;;;3.75;3.00;;;;;;;28.12;39.84;101067.44;143727;586;47004;-76
2022/06/30 02:25:51;;;;;;;4.12;3.30;;;;;;;28.14;39.51;101062.44;143725;605;47011;-76
2022/06/30 02:28:17;;;;;;;5.45;3.40;;;;;;;28.13;39.52;101063.56;143725;582;47002;-76
2022/06/30 02:30:44;;;;;;;4.85;3.22;;;;;;;28.13;40.05;101066.31;143724;605;46007;-75
2022/06/30 02:33:11;;;;;;;7.55;3.53;;;;;;;28.12;40.26;101069.38;143725;619;47002;-75
2022/06/30 02:35:37;;;;;;;5.95;3.12;;;;;;;27.99;40.87;101071.81;143725;600;46023;-75
2022/06/30 02:38:10;;;;;;;8.00;3.35;;;;;;;27.92;40.54;101076.12;143728;586;46004;-75
2022/06/30 02:40:37;;;;;;;5.30;3.37;;;;;;;27.90;40.97;101078.38;143725;604;46006;-76
2022/06/30 02:43:03;;;;;;;6.85;3.42;;;;;;;27.88;40.95;101073.19;143726;582;47002;-75
2022/06/30 02:45:29;;;;;;;4.57;3.62;;;;;;;27.86;41.03;101069.06;143725;567;47008;-76
2022/06/30 02:47:58;;;;;;;7.53;3.65;;;;;;;27.81;41.53;101064.47;143724;601;47005;-74
2022/06/30 02:50:25;;;;;;;5.95;3.65;;;;;;;27.82;41.48;101068.88;143729;726;46006;-77
2022/06/30 02:52:51;;;;;;;6.20;3.53;;;;;;;27.80;41.55;101071.13;143727;583;47002;-75
2022/06/30 02:55:18;;;;;;;4.35;3.20;;;;;;;27.78;41.40;101065.94;143724;590;46011;-75
2022/06/30 02:57:44;;;;;;;4.70;3.33;;;;;;;27.78;41.52;101059.56;143721;617;47004;-75
2022/06/30 03:00:11;;;;;;;5.43;3.53;;;;;;;27.74;41.94;101064.06;143727;675;46925;-75
2022/06/30 03:02:38;;;;;;;8.13;3.55;;;;;;;27.71;42.81;101065.50;143724;575;47004;-75
2022/06/30 03:05:05;;;;;;;9.93;4.18;;;;;;;27.70;42.79;101058.34;143727;667;47008;-75
2022/06/30 03:07:32;;;;;;;10.70;4.45;;;;;;;27.67;42.45;101067.22;143722;610;47004;-74
2022/06/30 03:09:58;;;;;;;9.52;4.32;;;;;;;27.72;41.90;101069.06;143725;585;46925;-75
2022/06/30 03:12:25;;;;;;;6.55;3.65;;;;;;;27.73;41.85;101065.19;143726;584;47000;-75
2022/06/30 03:14:51;;;;;;;6.37;3.62;;;;;;;27.72;41.70;101072.66;143724;586;47010;-77
2022/06/30 03:17:18;;;;;;;7.18;3.97;;;;;;;27.71;41.91;101072.97;143721;584;47004;-75
2022/06/30 03:19:44;;;;;;;8.13;4.50;;;;;;;27.69;41.90;101067.75;143724;592;46006;-76
2022/06/30 03:22:11;;;;;;;8.57;3.70;;;;;;;27.72;41.37;101080.94;143724;659;47000;-74
2022/06/30 03:24:37;;;;;;;7.12;3.85;;;;;;;27.78;41.56;101076.12;143726;586;46009;-75
2022/06/30 03:27:05;;;;;;;9.00;4.00;;;;;;;27.78;41.92;101073.38;143723;722;47004;-75
2022/06/30 03:29:31;;;;;;;10.65;4.15;;;;;;;27.75;41.75;101072.06;143724;591;46006;-75
2022/06/30 03:31:57;;;;;;;6.53;3.90;;;;;;;27.72;41.94;101077.34;143725;619;47000;-75
2022/06/30 03:34:24;;;;;;;8.88;3.60;;;;;;;27.73;41.84;101076.22;143723;615;48010;-74
2022/06/30 03:36:51;;;;;;;4.65;3.25;;;;;;;27.75;41.27;101079.50;143724;572;47004;-74
2022/06/30 03:39:17;;;;;;;10.70;4.05;;;;;;;27.76;41.03;101076.44;143721;597;47006;-75
2022/06/30 03:41:43;;;;;;;11.12;4.43;;;;;;;27.82;41.42;101082.69;143725;691;47002;-77
2022/06/30 03:44:10;;;;;;;4.53;3.45;;;;;;;27.80;41.69;101088.47;143723;599;47010;-75
2022/06/30 03:46:36;;;;;;;7.68;4.03;;;;;;;27.80;40.51;101084.94;143720;584;47004;-75
2022/06/30 03:49:03;;;;;;;10.73;3.78;;;;;;;27.82;40.46;101082.69;143724;597;46006;-75
2022/06/30 03:51:29;;;;;;;3.40;3.10;;;;;;;27.85;41.26;101090.34;143727;746;47000;-74
2022/06/30 03:53:56;;;;;;;7.00;3.30;;;;;;;27.87;40.85;101084.50;143724;578;46010;-75
2022/06/30 03:56:24;;;;;;;6.95;3.50;;;;;;;27.83;40.79;101084.31;143724;595;47004;-75
2022/06/30 03:58:50;;;;;;;7.12;4.53;;;;;;;27.82;41.01;101077.97;143724;592;46925;-76
2022/06/30 04:01:17;;;;;;;8.90;3.25;;;;;;;27.81;41.27;101078.28;143724;581;47004;-75
2022/06/30 04:03:43;;;;;;;7.05;3.55;;;;;;;27.75;40.78;101079.50;143727;610;46008;-76
2022/06/30 04:06:09;;;;;;;5.82;3.58;;;;;;;27.79;41.31;101080.53;143722;602;47002;-75
2022/06/30 04:08:36;;;;;;;6.07;3.45;;;;;;;27.81;41.56;101084.59;143724;596;46007;-75
2022/06/30 04:11:02;;;;;;;3.75;2.95;;;;;;;27.79;41.54;101078.59;143725;572;47004;-75
2022/06/30 04:13:28;;;;;;;6.18;4.07;;;;;;;27.78;41.67;101076.97;143726;595;46010;-74
2022/06/30 04:15:55;;;;;;;10.40;3.95;;;;;;;27.83;41.25;101082.34;143722;604;47004;-75
2022/06/30 04:18:22;;;;;;;7.57;3.90;;;;;;;27.89;40.62;101088.59;143722;567;46006;-77
2022/06/30 04:20:48;;;;;;;8.20;4.00;;;;;;;27.96;40.74;101096.47;143726;589;47004;-75
2022/06/30 04:23:14;;;;;;;8.88;3.65;;;;;;;28.05;40.48;101083.56;143723;587;47010;-75
2022/06/30 04:25:41;;;;;;;7.82;3.65;;;;;;;28.10;41.11;101091.78;143725;569;46004;-75
2022/06/30 04:28:08;;;;;;;7.05;3.40;;;;;;;28.10;40.71;101086.28;143723;582;46926;-75
2022/06/30 04:33:19;;;;;;;8.63;4.15;;;;;;;28.18;41.46;101086.66;143724;572;47002;-74
2022/06/30 04:35:45;;;;;;;7.32;3.53;;;;;;;28.18;41.12;101075.59;143724;733;47004;-75
2022/06/30 04:38:12;;;;;;;6.15;3.97;;;;;;;28.25;41.02;101087.06;143725;600;46926;-76
2022/06/30 04:43:23;;;;;;;4.97;3.28;;;;;;;28.35;39.34;101084.06;143721;581;47004;-77
2022/06/30 04:45:49;;;;;;;8.90;3.60;;;;;;;28.37;38.41;101078.22;143725;585;47002;-75
2022/06/30 04:48:15;;;;;;;6.22;3.45;;;;;;;28.42;38.09;101080.84;143725;589;46006;-74
2022/06/30 04:50:42;;;;;;;11.20;4.25;;;;;;;28.46;38.56;101083.84;143724;581;47002;-77
2022/06/30 04:53:09;;;;;;;8.65;3.90;;;;;;;28.52;38.33;101086.16;143724;604;46010;-77
2022/06/30 04:55:35;;;;;;;8.88;3.65;;;;;;;28.56;38.32;101089.12;143723;583;47004;-77
2022/06/30 04:58:02;;;;;;;9.38;3.53;;;;;;;28.63;38.55;101091.44;143726;610;46006;-78
2022/06/30 05:00:29;;;;;;;11.85;3.90;;;;;;;28.67;38.54;101098.81;143724;568;47004;-77
2022/06/30 05:02:55;;;;;;;8.63;4.22;;;;;;;28.72;38.26;101097.87;143724;702;47008;-77
2022/06/30 05:05:22;;;;;;;9.45;5.43;;;;;;;28.76;38.86;101106.38;143724;600;47002;-78
2022/06/30 05:07:48;;;;;;;12.07;5.05;;;;;;;28.76;39.01;101100.84;143726;587;46007;-78
2022/06/30 05:10:14;;;;;;;8.48;4.70;;;;;;;28.81;39.23;101103.50;143726;664;47000;-78
2022/06/30 05:12:41;;;;;;;9.85;5.10;;;;;;;28.87;38.84;101108.59;143726;579;46023;-78
2022/06/30 05:15:08;;;;;;;9.80;5.50;;;;;;;28.93;39.97;101109.28;143722;700;47002;-78
2022/06/30 05:17:35;;;;;;;16.17;6.82;;;;;;;28.92;39.07;101113.16;143725;591;46926;-79
2022/06/30 05:20:02;;;;;;;13.52;7.03;;;;;;;28.96;39.54;101111.41;143724;581;47002;-72
2022/06/30 05:22:29;;;;;;;16.60;7.55;;;;;;;29.00;39.73;101109.66;143722;568;47010;-77
2022/06/30 05:27:39;;;;;;;14.18;7.82;;;;;;;29.12;39.29;101119.31;143723;566;47000;-77
2022/06/30 05:30:07;;;;;;;16.05;7.75;;;;;;;29.15;39.24;101118.69;143726;592;47000;-76
2022/06/30 05:32:34;;;;;;;17.40;7.55;;;;;;;29.16;39.25;101112.03;143727;645;46008;-75
2022/06/30 05:35:01;;;;;;;14.23;7.57;;;;;;;29.21;38.67;101117.44;143723;606;47002;-76
2022/06/30 05:37:27;;;;;;;18.12;7.65;;;;;;;29.23;39.16;101115.16;143725;602;46006;-76
2022/06/30 05:39:54;;;;;;;14.87;7.75;;;;;;;29.27;39.27;101118.94;143724;581;47002;-74
2022/06/30 05:42:20;;;;;;;19.10;7.40;;;;;;;29.33;39.51;101119.59;143726;569;46010;-76
2022/06/30 05:44:46;;;;;;;14.02;7.70;;;;;;;29.39;40.22;101123.09;143723;590;47004;-75
2022/06/30 05:47:13;;;;;;;15.55;7.50;;;;;;;29.43;39.57;101126.84;143724;605;46006;-75
2022/06/30 05:49:40;;;;;;;15.27;8.07;;;;;;;29.49;39.44;101118.09;143726;589;47004;-76
2022/06/30 05:52:07;;;;;;;18.00;7.80;;;;;;;29.52;39.79;101119.44;143724;567;46923;-76
2022/06/30 05:54:33;;;;;;;14.32;7.65;;;;;;;29.56;40.08;101125.97;143722;575;47002;-76
2022/06/30 05:56:59;;;;;;;14.98;7.75;;;;;;;29.61;40.70;101119.47;143724;709;47006;-77
2022/06/30 05:59:26;;;;;;;21.73;8.35;;;;;;;29.66;39.41;101116.53;143723;573;47002;-77
2022/06/30 06:01:52;;;;;;;16.27;8.10;;;;;;;29.71;39.23;101119.16;143724;589;46011;-76
2022/06/30 06:04:19;;;;;;;18.92;7.20;;;;;;;29.75;38.55;101119.34;143723;669;47004;-76
2022/06/30 06:06:45;;;;;;;13.62;7.55;;;;;;;29.79;39.49;101115.63;143725;573;46006;-77
2022/06/30 06:09:12;;;;;;;21.10;6.95;;;;;;;29.86;38.89;101122.63;143725;808;47002;-76
2022/06/30 06:11:38;;;;;;;16.30;6.40;;;;;;;29.88;37.90;101121.19;143725;616;46010;-76
2022/06/30 06:14:05;;;;;;;14.38;5.72;;;;;;;29.94;37.72;101124.63;143723;733;47002;-75
2022/06/30 06:16:31;;;;;;;14.80;6.85;;;;;;;29.98;37.12;101117.34;143726;585;46006;-75
2022/06/30 06:18:58;;;;;;;11.30;5.43;;;;;;;30.05;37.38;101127.97;143722;572;47002;-76
2022/06/30 06:21:24;;;;;;;11.98;5.57;;;;;;;30.09;37.89;101123.41;143725;588;46008;-75
2022/06/30 06:23:51;;;;;;;9.73;4.68;;;;;;;30.14;36.94;101119.66;143723;567;47002;-76
2022/06/30 06:26:17;;;;;;;7.35;4.80;;;;;;;30.17;37.00;101110.72;143725;570;46006;-75
2022/06/30 06:31:28;;;;;;;5.25;3.37;;;;;;;30.29;36.83;101110.06;143726;586;46009;-76
2022/06/30 06:33:54;;;;;;;5.35;3.40;;;;;;;30.38;37.10;101119.22;143721;673;47004;-76
2022/06/30 06:36:20;;;;;;;8.85;3.60;;;;;;;30.43;35.99;101116.31;143723;629;46006;-76
2022/06/30 06:38:47;;;;;;;6.35;3.25;;;;;;;30.50;36.08;101113.84;143725;573;47002;-74
2022/06/30 06:41:15;;;;;;;6.53;3.28;;;;;;;30.53;35.11;101118.75;143724;596;46010;-77
2022/06/30 06:43:41;;;;;;;12.70;11.50;;;;;;;30.58;34.91;101114.22;143721;579;47002;-76
2022/06/30 06:46:08;;;;;;;9.23;6.80;;;;;;;30.63;34.77;101116.81;143723;568;46018;-77
2022/06/30 06:48:34;;;;;;;8.70;3.87;;;;;;;30.69;36.11;101109.97;143727;584;46004;-77
2022/06/30 06:51:01;;;;;;;6.50;3.20;;;;;;;30.77;34.45;101111.09;143723;604;47010;-74
2022/06/30 06:53:27;;;;;;;4.57;3.10;;;;;;;30.80;34.51;101102.94;143724;636;46928;-76
2022/06/30 06:55:53;;;;;;;8.65;3.00;;;;;;;30.83;34.73;101110.59;143724;598;47006;-79
2022/06/30 06:58:20;;;;;;;4.40;2.78;;;;;;;30.84;33.78;101108.66;143726;621;46010;-75
2022/06/30 07:00:46;;;;;;;5.70;3.47;;;;;;;30.90;34.73;101104.56;143723;725;47010;-74
2022/06/30 07:03:13;;;;;;;5.82;3.05;;;;;;;30.97;34.75;101110.44;143723;572;47002;-75
2022/06/30 07:05:41;;;;;;;9.55;3.53;;;;;;;30.98;34.28;101114.84;143723;580;46007;-79
2022/06/30 07:08:07;;;;;;;5.07;3.05;;;;;;;30.96;33.43;101106.03;143725;605;47000;-79
2022/06/30 07:10:33;;;;;;;6.72;3.17;;;;;;;31.01;33.76;101110.56;143729;602;46923;-78
2022/06/30 07:13:00;;;;;;;6.07;3.03;;;;;;;31.08;33.65;101108.13;143722;579;47002;-78
2022/06/30 07:15:27;;;;;;;4.15;3.05;;;;;;;31.14;33.32;101097.69;143727;618;46006;-77
2022/06/30 07:17:53;;;;;;;6.82;3.65;;;;;;;31.18;32.46;101097.84;143724;593;47004;-77
2022/06/30 07:20:20;;;;;;;5.62;3.15;;;;;;;31.26;33.08;101105.34;143724;570;47010;-78
2022/06/30 07:22:47;;;;;;;4.40;2.95;;;;;;;31.33;33.30;101096.50;143723;606;47004;-78
2022/06/30 07:25:14;;;;;;;8.10;3.22;;;;;;;31.38;32.94;101091.59;143726;590;46006;-78
2022/06/30 07:27:40;;;;;;;3.85;2.97;;;;;;;31.43;31.97;101096.12;143724;585;47002;-77
2022/06/30 07:30:07;;;;;;;6.07;3.05;;;;;;;31.52;32.67;101093.31;143724;591;46010;-79
2022/06/30 07:32:35;;;;;;;4.15;2.65;;;;;;;31.57;32.11;101090.38;143724;618;47002;-77
2022/06/30 07:35:01;;;;;;;5.55;3.05;;;;;;;31.56;32.00;101092.34;143727;575;46006;-77
2022/06/30 07:37:27;;;;;;;6.55;2.85;;;;;;;31.66;33.13;101090.31;143724;614;47002;-78
2022/06/30 07:39:54;;;;;;;4.05;2.75;;;;;;;31.72;32.37;101091.81;143725;578;46010;-78
2022/06/30 07:42:20;;;;;;;5.22;3.17;;;;;;;31.79;33.01;101094.06;143722;671;47004;-76
2022/06/30 07:44:48;;;;;;;4.20;3.00;;;;;;;31.85;32.27;101098.28;143726;635;46007;-78
2022/06/30 07:47:14;;;;;;;4.10;2.80;;;;;;;31.90;32.35;101087.78;143719;610;47002;-76
2022/06/30 07:49:41;;;;;;;6.40;3.30;;;;;;;31.94;31.78;101082.38;143724;598;46010;-76
2022/06/30 07:52:07;;;;;;;3.42;2.95;;;;;;;31.96;32.26;101090.34;143724;648;47002;-76
2022/06/30 07:54:33;;;;;;;3.33;2.90;;;;;;;32.03;31.91;101088.69;143727;586;46006;-77
2022/06/30 07:57:00;;;;;;;5.37;3.08;;;;;;;32.08;31.79;101087.69;143725;569;47000;-77
2022/06/30 07:59:27;;;;;;;4.53;3.20;;;;;;;32.17;31.46;101080.09;143724;579;47008;-77
2022/06/30 08:01:53;;;;;;;4.00;3.12;;;;;;;32.24;32.74;101081.53;143723;652;47004;-78
2022/06/30 08:04:27;;;;;;;4.53;3.33;;;;;;;32.30;31.68;101080.22;143724;668;46006;-73
2022/06/30 08:07:03;;;;;;;7.32;4.20;;;;;;;32.38;31.43;101076.53;143732;630;45010;-72
2022/06/30 08:09:38;;;;;;;4.97;2.70;;;;;;;32.48;31.89;101069.75;143729;611;45924;-69
2022/06/30 08:12:12;;;;;;;4.20;2.90;;;;;;;32.59;31.08;101064.59;143728;588;46002;-76
2022/06/30 08:14:42;;;;;;;5.47;3.25;;;;;;;32.65;30.83;101063.22;143728;619;45926;-75
2022/06/30 08:17:08;;;;;;;3.72;2.90;;;;;;;32.72;30.66;101065.44;143723;568;47002;-76
2022/06/30 08:19:34;;;;;;;9.10;3.30;;;;;;;32.80;31.03;101070.09;143726;623;46028;-76
2022/06/30 08:22:01;;;;;;;7.60;2.80;;;;;;;32.90;31.07;101061.38;143721;673;47004;-75
2022/06/30 08:24:28;;;;;;;3.62;2.30;;;;;;;32.97;29.13;101060.81;143722;650;47006;-76
2022/06/30 08:26:54;;;;;;;4.70;2.90;;;;;;;33.01;29.88;101060.94;143725;624;47002;-77
2022/06/30 08:29:21;;;;;;;4.05;2.75;;;;;;;33.07;29.56;101065.91;143724;649;47010;-77
2022/06/30 08:31:47;;;;;;;4.90;2.80;;;;;;;33.08;27.83;101061.19;143721;606;47004;-77
2022/06/30 08:34:13;;;;;;;6.78;3.05;;;;;;;33.11;27.75;101058.50;143724;604;46006;-78
2022/06/30 08:36:40;;;;;;;7.47;4.87;;;;;;;33.10;27.47;101062.44;143725;583;47004;-79
2022/06/30 08:42:02;;;;;;;3.05;2.60;;;;;;;33.11;27.66;101066.03;143724;596;46010;-78
2022/06/30 08:42:05;;;;;;;5.20;4.00;;;;;;;32.99;35.22;101061.28;143723;567;47012;-78
2022/06/30 08:44:34;;;;;;;6.30;4.70;;;;;;;32.77;36.55;101054.91;143725;572;46016;-78
2022/06/30 08:47:01;;;;;;;6.32;4.03;;;;;;;32.84;35.04;101045.22;143725;599;47002;-78
2022/06/30 08:49:29;;;;;;;5.28;3.33;;;;;;;32.94;32.35;101045.59;143723;591;47010;-77
2022/06/30 08:52:01;;;;;;;6.70;3.95;;;;;;;32.98;30.29;101051.31;143721;572;47004;-80
2022/06/30 08:54:28;;;;;;;6.32;3.22;;;;;;;33.00;29.87;101051.78;143725;571;46006;-78
2022/06/30 08:56:59;;;;;;;6.53;3.50;;;;;;;33.01;30.02;101052.56;143721;645;47002;-80
2022/06/30 08:59:27;;;;;;;12.68;3.97;;;;;;;33.11;32.80;101043.78;143725;589;46010;-76
2022/06/30 09:01:54;;;;;;;13.65;4.70;;;;;;;33.18;33.92;101057.16;143723;594;47004;-79
2022/06/30 09:04:22;;;;;;;11.23;4.62;;;;;;;33.07;34.10;101051.22;143724;710;46008;-80
2022/06/30 09:06:48;;;;;;;6.62;3.97;;;;;;;33.02;34.49;101051.41;143724;569;47004;-77
2022/06/30 09:09:15;;;;;;;7.70;4.05;;;;;;;33.05;34.37;101050.75;143726;597;46026;-78
2022/06/30 09:11:48;;;;;;;7.07;3.42;;;;;;;33.07;33.51;101042.84;143724;625;47004;-76
2022/06/30 09:14:37;;;;;;;8.18;4.10;;;;;;;33.13;33.26;101047.03;143726;693;46009;-76
2022/06/30 09:17:06;;;;;;;5.47;3.85;;;;;;;33.10;32.88;101045.75;143726;641;47006;-77
2022/06/30 09:19:35;;;;;;;5.50;3.50;;;;;;;32.86;32.53;101063.22;143725;593;46012;-78
2022/06/30 09:22:14;;;;;;;6.70;3.20;;;;;;;32.90;31.97;101054.97;143722;586;47007;-77
2022/06/30 09:24:41;;;;;;;11.12;3.15;;;;;;;32.98;30.49;101056.88;143727;602;46008;-77
2022/06/30 09:27:13;;;;;;;4.82;3.10;;;;;;;32.99;31.42;101047.37;143727;566;47002;-77
2022/06/30 09:30:09;;;;;;;14.82;4.10;;;;;;;33.19;31.29;101036.47;143726;594;46013;-75
2022/06/30 09:33:02;;;;;;;6.68;3.58;;;;;;;33.25;30.89;101051.81;143723;620;47004;-78
2022/06/30 09:35:30;;;;;;;10.55;3.62;;;;;;;33.17;31.00;101041.59;143724;584;46008;-77
2022/06/30 09:38:03;;;;;;;6.37;3.45;;;;;;;33.02;30.74;101059.78;143726;589;47006;-77
2022/06/30 09:43:33;;;;;;;10.88;3.42;;;;;;;33.13;30.70;101043.44;143720;590;47006;-78
2022/06/30 09:45:59;;;;;;;6.07;3.30;;;;;;;33.21;30.37;101034.16;143724;588;46014;-77
2022/06/30 09:48:32;;;;;;;9.80;3.65;;;;;;;33.28;30.34;101037.19;143724;595;47004;-79
2022/06/30 09:50:59;;;;;;;5.45;3.42;;;;;;;33.32;30.29;101046.47;143726;589;46029;-81
2022/06/30 09:53:26;;;;;;;8.38;3.30;;;;;;;33.29;29.62;101041.59;143724;597;47006;-77
2022/06/30 09:55:52;;;;;;;4.90;3.20;;;;;;;33.26;29.43;101037.56;143725;575;46008;-76
2022/06/30 09:58:36;;;;;;;4.95;3.40;;;;;;;33.28;30.06;101028.84;143726;649;47006;-78
2022/06/30 10:01:03;;;;;;;3.72;3.08;;;;;;;33.44;29.78;101033.75;143723;667;47012;-81
2022/06/30 10:03:30;;;;;;;4.50;3.08;;;;;;;33.41;28.58;101035.28;143728;624;46004;-76
2022/06/30 10:06:13;;;;;;;6.78;3.42;;;;;;;33.20;28.73;101030.59;143726;650;47009;-80
2022/06/30 10:08:40;;;;;;;5.62;2.85;;;;;;;33.30;28.82;101029.31;143725;583;47004;-79
2022/06/30 10:11:08;;;;;;;4.37;2.92;;;;;;;33.32;28.70;101031.75;143726;576;46012;-79
2022/06/30 10:13:40;;;;;;;5.05;2.92;;;;;;;33.31;29.36;101024.53;143724;589;47007;-79
2022/06/30 10:16:08;;;;;;;5.37;3.22;;;;;;;33.36;29.28;101025.16;143726;590;46008;-78
2022/06/30 10:18:39;;;;;;;4.60;2.97;;;;;;;33.48;28.85;101021.56;143724;645;47004;-77
2022/06/30 10:21:08;;;;;;;4.72;3.08;;;;;;;33.54;28.35;101020.19;143723;622;47012;-80
2022/06/30 10:23:35;;;;;;;5.65;2.60;;;;;;;33.49;27.47;101028.75;143724;598;47004;-77
2022/06/30 10:26:02;;;;;;;4.03;2.55;;;;;;;33.38;27.05;101024.81;143726;587;46008;-78
2022/06/30 10:28:30;;;;;;;5.85;3.20;;;;;;;33.41;28.00;101021.34;143725;581;47002;-77
2022/06/30 10:31:20;;;;;;;4.87;2.92;;;;;;;33.59;28.13;101033.03;143725;634;46012;-78
2022/06/30 10:34:13;;;;;;;5.28;3.05;;;;;;;33.68;27.58;101022.59;143722;589;47006;-79
2022/06/30 10:37:05;;;;;;;3.63;3.10;;;;;;;33.95;27.90;101023.03;143727;582;46009;-77
2022/06/30 10:40:06;;;;;;;5.87;3.20;;;;;;;34.13;27.37;101015.22;143725;592;47004;-79
2022/06/30 10:42:44;;;;;;;4.85;3.15;;;;;;;34.05;27.05;101012.59;143720;615;48010;-77
2022/06/30 10:45:35;;;;;;;7.78;3.03;;;;;;;34.13;27.38;100998.50;143725;642;47006;-79
2022/06/30 10:48:08;;;;;;;4.60;2.85;;;;;;;34.14;27.23;101005.72;143726;566;46008;-76
2022/06/30 10:50:35;;;;;;;;;;;;;;;34.17;26.97;101013.34;143730;984;47002;-77
2022/06/30 10:53:04;;;;;;;4.18;2.53;;;;;;;34.01;26.22;101010.50;143731;592;46029;-77
2022/06/30 10:55:53;;;;;;;4.72;2.60;;;;;;;34.04;25.71;101006.19;143726;591;47004;-77
2022/06/30 10:58:22;;;;;;;5.22;2.70;;;;;;;34.18;26.76;101003.00;143728;617;46008;-76
2022/06/30 11:01:11;;;;;;;6.12;2.40;;;;;;;34.21;25.54;101001.47;143726;636;47006;-78
2022/06/30 11:03:58;;;;;;;5.50;2.60;;;;;;;34.25;25.52;101008.78;143725;582;47010;-80
2022/06/30 11:06:44;;;;;;;5.35;2.87;;;;;;;34.28;25.41;101002.50;143722;617;47004;-79
2022/06/30 11:09:10;;;;;;;4.75;2.60;;;;;;;34.32;25.36;101005.41;143727;632;46006;-77
2022/06/30 11:11:45;;;;;;;4.87;3.05;;;;;;;34.30;24.77;101002.16;143726;626;47004;-77
2022/06/30 11:14:32;;;;;;;5.10;3.10;;;;;;;34.30;24.90;100997.38;143726;586;46924;-80
2022/06/30 11:17:00;;;;;;;5.07;2.37;;;;;;;34.30;25.21;100997.38;143725;593;47004;-78
2022/06/30 11:19:32;;;;;;;5.30;2.67;;;;;;;34.30;24.78;100999.37;143726;594;46007;-79
2022/06/30 11:21:59;;;;;;;6.07;2.92;;;;;;;34.19;25.20;100998.22;143726;586;47002;-82
2022/06/30 11:24:27;;;;;;;3.25;2.53;;;;;;;34.26;25.52;100995.66;143726;596;46023;-77
2022/06/30 11:29:39;;;;;;;4.90;3.00;;;;;;;34.48;26.31;100987.94;143725;586;47002;-79
2022/06/30 11:32:07;;;;;;;6.87;3.40;;;;;;;34.54;26.04;100983.69;143726;618;47002;-80
2022/06/30 11:34:37;;;;;;;4.10;2.78;;;;;;;34.39;25.72;100976.91;143725;569;47010;-80
2022/06/30 11:37:03;;;;;;;5.18;3.03;;;;;;;34.25;26.04;100971.75;143723;567;47004;-79
2022/06/30 11:39:31;;;;;;;6.82;2.60;;;;;;;34.16;26.17;100978.25;143727;601;46006;-82
2022/06/30 11:41:59;;;;;;;8.68;2.92;;;;;;;34.19;25.97;100978.72;143724;559;47002;-82
2022/06/30 11:44:38;;;;;;;4.53;2.47;;;;;;;34.34;26.72;100963.22;143725;584;47011;-79
2022/06/30 11:47:17;;;;;;;4.32;2.85;;;;;;;34.38;26.03;100966.91;143724;614;47004;-78
2022/06/30 11:49:55;;;;;;;6.32;2.67;;;;;;;34.11;25.73;100978.53;143727;590;46006;-80